Time;durP1;ratioP1;P1;durP2;ratioP2;P2;SDS_P1;SDS_P2;PMS_P1;PMS_P2;Temp;Humidity;BMP_temperature;BMP_pressure;BME280_temperature;BME280_humidity;BME280_pressure;Samples;Min_cycle;Max_cycle;Signal;HPM_P1;HPM_P2
2022/08/27 00:01:59;;;;;;;21.48;15.38;;;17.70;99.90;;;;;;5089153;28;20382;-52
2022/08/27 00:04:25;;;;;;;21.70;14.65;;;17.70;99.90;;;;;;5094865;28;20027;-50
2022/08/27 00:06:51;;;;;;;24.30;15.45;;;17.60;99.90;;;;;;5094727;28;20059;-50
2022/08/27 00:09:17;;;;;;;18.20;14.55;;;17.40;99.90;;;;;;5094899;28;20503;-50
2022/08/27 00:11:43;;;;;;;18.60;14.35;;;17.40;99.90;;;;;;5094891;28;20028;-50
2022/08/27 00:14:09;;;;;;;20.63;15.18;;;17.30;99.90;;;;;;5094446;28;20435;-51
2022/08/27 00:16:35;;;;;;;20.40;13.57;;;17.30;99.90;;;;;;5094497;28;20060;-51
2022/08/27 00:19:01;;;;;;;22.45;16.10;;;17.40;99.90;;;;;;5094855;28;20027;-53
2022/08/27 00:21:27;;;;;;;29.70;14.65;;;17.40;99.90;;;;;;5094346;28;20464;-51
2022/08/27 00:23:52;;;;;;;23.38;14.52;;;17.50;99.90;;;;;;5094729;28;20024;-52
2022/08/27 00:26:18;;;;;;;27.83;16.40;;;17.50;99.90;;;;;;5094614;28;20142;-54
2022/08/27 00:28:46;;;;;;;20.15;15.05;;;17.60;99.90;;;;;;5094450;28;20035;-51
2022/08/27 00:31:12;;;;;;;19.80;16.20;;;17.60;99.90;;;;;;5077115;28;20058;-53
2022/08/27 00:33:37;;;;;;;21.13;15.07;;;17.60;99.90;;;;;;5074315;28;20107;-52
2022/08/27 00:36:04;;;;;;;21.25;14.77;;;17.60;99.90;;;;;;5074204;28;20035;-53
2022/08/27 00:38:30;;;;;;;23.38;15.07;;;17.60;99.90;;;;;;5073943;28;20400;-51
2022/08/27 00:40:56;;;;;;;35.10;15.48;;;17.60;99.90;;;;;;5072927;28;20028;-52
2022/08/27 00:43:24;;;;;;;20.65;14.88;;;17.50;99.90;;;;;;5072466;28;20037;-53
2022/08/27 00:45:53;;;;;;;25.13;15.20;;;17.50;99.90;;;;;;5074021;28;20037;-53
2022/08/27 00:48:23;;;;;;;17.95;14.65;;;17.50;99.90;;;;;;5073782;28;20100;-52
2022/08/27 00:50:52;;;;;;;21.45;14.98;;;17.50;99.90;;;;;;5074139;28;20052;-50
2022/08/27 00:53:25;;;;;;;22.73;15.80;;;17.60;99.90;;;;;;5073782;28;20029;-51
2022/08/27 00:56:03;;;;;;;22.80;14.13;;;17.40;99.90;;;;;;5073929;28;20132;-51
2022/08/27 00:58:36;;;;;;;18.05;12.60;;;17.40;99.90;;;;;;5073558;28;20029;-51
2022/08/27 01:01:05;;;;;;;17.50;12.98;;;17.30;99.90;;;;;;5086155;28;20749;-51
2022/08/27 01:03:31;;;;;;;23.98;13.65;;;17.30;99.90;;;;;;5053500;28;20048;-51
2022/08/27 01:06:00;;;;;;;18.38;13.60;;;17.20;99.90;;;;;;5053761;28;20028;-52
2022/08/27 01:08:29;;;;;;;17.63;14.30;;;17.20;99.90;;;;;;5053137;28;20426;-51
2022/08/27 01:10:58;;;;;;;19.88;15.05;;;17.20;99.90;;;;;;5053598;28;20083;-51
2022/08/27 01:13:28;;;;;;;21.52;15.30;;;17.30;99.90;;;;;;5053288;28;20043;-53
2022/08/27 01:15:58;;;;;;;20.42;14.85;;;17.30;99.90;;;;;;5058310;28;20024;-51
2022/08/27 01:18:29;;;;;;;15.70;13.18;;;17.30;99.90;;;;;;5085105;28;20078;-50
2022/08/27 01:21:23;;;;;;;16.60;12.43;;;17.30;99.90;;;;;;5093638;28;20077;-51
2022/08/27 01:24:24;;;;;;;19.52;13.27;;;17.50;99.90;;;;;;5089477;28;20036;-52
2022/08/27 01:26:50;;;;;;;19.33;13.93;;;17.60;99.90;;;;;;5077439;28;20059;-51
2022/08/27 01:29:17;;;;;;;24.13;14.25;;;17.50;99.90;;;;;;5093316;28;20449;-52
2022/08/27 01:31:43;;;;;;;17.50;14.02;;;17.50;99.90;;;;;;5093276;28;20028;-51
2022/08/27 01:34:08;;;;;;;22.08;14.77;;;17.40;99.90;;;;;;5093138;28;20032;-54
2022/08/27 01:36:34;;;;;;;22.55;14.57;;;17.40;99.90;;;;;;5093245;28;20463;-51
2022/08/27 01:39:00;;;;;;;21.27;14.48;;;17.40;99.90;;;;;;5093186;28;20066;-50
2022/08/27 01:41:26;;;;;;;19.92;14.43;;;17.40;99.90;;;;;;5089122;28;20021;-50
2022/08/27 01:43:52;;;;;;;19.23;13.00;;;17.40;99.90;;;;;;5072998;28;20016;-52
2022/08/27 01:46:23;;;;;;;17.05;13.65;;;17.50;99.90;;;;;;5072643;28;20139;-52
2022/08/27 01:48:49;;;;;;;27.27;14.05;;;17.50;99.90;;;;;;5072744;28;20028;-52
2022/08/27 01:51:15;;;;;;;18.60;12.95;;;17.50;99.90;;;;;;5072675;28;20029;-51
2022/08/27 01:53:41;;;;;;;16.83;13.32;;;17.60;99.90;;;;;;5072602;28;20055;-51
2022/08/27 01:56:07;;;;;;;21.65;13.70;;;17.50;99.90;;;;;;5072638;28;20017;-51
2022/08/27 01:58:32;;;;;;;19.67;13.95;;;17.60;99.90;;;;;;5072441;28;20060;-51
2022/08/27 02:01:06;;;;;;;25.63;13.95;;;17.50;99.90;;;;;;5072538;28;20024;-52
2022/08/27 02:03:33;;;;;;;18.40;15.43;;;17.70;99.90;;;;;;5072212;28;20060;-52
2022/08/27 02:06:06;;;;;;;23.77;13.63;;;17.60;99.90;;;;;;5072459;28;20404;-54
2022/08/27 02:08:32;;;;;;;23.25;13.57;;;17.70;99.90;;;;;;5072211;28;20040;-52
2022/08/27 02:10:58;;;;;;;18.70;14.32;;;17.70;99.90;;;;;;5073373;28;20174;-51
2022/08/27 02:13:24;;;;;;;20.52;15.00;;;17.70;99.90;;;;;;5072135;28;20043;-53
2022/08/27 02:15:50;;;;;;;21.25;14.35;;;17.70;99.90;;;;;;5072362;28;20403;-52
2022/08/27 02:18:16;;;;;;;16.92;12.93;;;17.70;99.90;;;;;;5072021;28;20029;-53
2022/08/27 02:20:44;;;;;;;18.80;13.32;;;17.80;99.90;;;;;;5072142;28;20033;-51
2022/08/27 02:23:11;;;;;;;17.88;12.35;;;17.80;99.90;;;;;;5072120;28;20070;-54
2022/08/27 02:25:37;;;;;;;16.42;11.35;;;17.80;99.90;;;;;;5071320;28;20052;-50
2022/08/27 02:28:04;;;;;;;25.02;13.07;;;17.90;99.90;;;;;;5072085;28;20028;-51
2022/08/27 02:30:33;;;;;;;20.30;12.60;;;17.90;99.90;;;;;;5071909;28;20028;-52
2022/08/27 02:33:01;;;;;;;28.95;12.15;;;17.90;99.90;;;;;;5071844;28;20020;-52
2022/08/27 02:35:30;;;;;;;24.95;11.93;;;17.80;99.90;;;;;;5079100;28;20016;-51
2022/08/27 02:37:57;;;;;;;19.15;11.93;;;17.70;99.90;;;;;;5092155;28;20023;-52
2022/08/27 02:40:24;;;;;;;12.93;11.02;;;17.70;99.90;;;;;;5091919;28;20043;-53
2022/08/27 02:42:49;;;;;;;16.65;11.52;;;17.70;99.90;;;;;;5092021;28;20024;-51
2022/08/27 02:45:16;;;;;;;15.77;11.93;;;17.60;99.90;;;;;;5091857;28;20111;-54
2022/08/27 02:47:42;;;;;;;13.02;10.90;;;17.50;99.90;;;;;;5092059;28;20012;-51
2022/08/27 02:50:09;;;;;;;16.70;11.15;;;17.50;99.90;;;;;;5084557;28;20090;-53
2022/08/27 02:52:35;;;;;;;11.07;8.57;;;17.50;99.90;;;;;;5070346;28;20032;-50
2022/08/27 02:55:01;;;;;;;11.63;8.73;;;17.60;99.90;;;;;;5071625;28;20542;-51
2022/08/27 02:57:27;;;;;;;12.63;9.43;;;17.70;99.90;;;;;;5071440;28;20017;-51
2022/08/27 02:59:53;;;;;;;14.35;8.20;;;17.50;99.90;;;;;;5071711;28;20074;-52
2022/08/27 03:02:19;;;;;;;11.07;7.30;;;17.60;99.90;;;;;;5070271;28;20070;-53
2022/08/27 03:04:45;;;;;;;15.02;6.45;;;17.70;99.90;;;;;;5079279;28;20107;-54
2022/08/27 03:07:11;;;;;;;12.52;7.63;;;17.80;99.90;;;;;;5091453;28;20043;-51
2022/08/27 03:09:37;;;;;;;11.82;8.38;;;17.80;99.90;;;;;;5091690;28;20428;-53
2022/08/27 03:12:04;;;;;;;9.23;6.65;;;17.60;99.90;;;;;;5091660;28;20103;-50
2022/08/27 03:14:30;;;;;;;11.10;7.13;;;17.70;99.90;;;;;;5091527;28;20034;-50
2022/08/27 03:18:16;;;;;;;9.30;7.45;;;17.70;99.90;;;;;;5091734;28;20028;-51
2022/08/27 03:19:41;;;;;;;14.10;7.57;;;17.80;99.90;;;;;;5081640;28;20052;-51
2022/08/27 03:22:07;;;;;;;11.00;7.28;;;17.90;99.90;;;;;;5071324;28;20416;-51
2022/08/27 03:24:33;;;;;;;13.18;7.00;;;17.80;99.90;;;;;;5071266;28;20075;-52
2022/08/27 03:26:59;;;;;;;11.27;7.50;;;17.80;99.90;;;;;;5071489;28;20029;-53
2022/08/27 03:29:25;;;;;;;11.23;6.75;;;17.80;99.90;;;;;;5071030;28;20035;-53
2022/08/27 03:31:51;;;;;;;14.23;6.60;;;17.80;99.90;;;;;;5071323;28;20017;-52
2022/08/27 03:34:17;;;;;;;13.70;7.35;;;17.70;99.90;;;;;;5074052;28;20027;-52
2022/08/27 03:36:43;;;;;;;9.63;7.53;;;17.60;99.90;;;;;;5093576;28;20943;-51
2022/08/27 03:39:09;;;;;;;12.30;7.55;;;17.60;99.90;;;;;;5094300;28;20016;-54
2022/08/27 03:41:34;;;;;;;12.63;7.00;;;17.60;99.90;;;;;;5094090;28;20378;-51
2022/08/27 03:44:00;;;;;;;11.55;7.82;;;17.60;99.90;;;;;;5094196;28;20024;-51
2022/08/27 03:46:29;;;;;;;10.23;7.30;;;17.60;99.90;;;;;;5093946;28;20437;-51
2022/08/27 03:48:54;;;;;;;10.68;8.05;;;17.60;99.90;;;;;;5093697;28;20467;-51
2022/08/27 03:51:20;;;;;;;9.50;7.85;;;17.70;99.90;;;;;;5094004;28;20035;-51
2022/08/27 03:53:46;;;;;;;10.70;8.60;;;17.70;99.90;;;;;;5093808;28;20103;-51
2022/08/27 03:56:13;;;;;;;9.48;7.32;;;17.70;99.90;;;;;;5093653;28;20020;-51
2022/08/27 03:58:39;;;;;;;13.05;8.60;;;17.70;99.90;;;;;;5093867;28;20016;-53
2022/08/27 04:01:06;;;;;;;16.00;8.98;;;17.80;99.90;;;;;;5093833;28;20073;-51
2022/08/27 04:03:32;;;;;;;14.02;8.00;;;17.90;99.90;;;;;;5091726;28;20105;-51
2022/08/27 04:05:58;;;;;;;13.52;8.55;;;17.90;99.90;;;;;;5073262;28;20024;-50
2022/08/27 04:08:25;;;;;;;11.88;8.52;;;17.90;99.90;;;;;;5072960;28;20044;-50
2022/08/27 04:10:52;;;;;;;14.02;9.43;;;17.90;99.90;;;;;;5073116;28;20036;-50
2022/08/27 04:13:18;;;;;;;11.48;8.02;;;17.90;99.90;;;;;;5072878;28;20115;-54
2022/08/27 04:15:44;;;;;;;13.20;9.23;;;18.00;99.90;;;;;;5073086;28;20165;-51
2022/08/27 04:18:11;;;;;;;14.02;9.57;;;18.00;99.90;;;;;;5072852;28;20521;-51
2022/08/27 04:20:37;;;;;;;13.48;8.27;;;18.00;99.90;;;;;;5072982;28;20102;-52
2022/08/27 04:23:04;;;;;;;9.52;8.52;;;18.00;99.90;;;;;;5072679;28;20558;-51
2022/08/27 04:25:30;;;;;;;9.68;8.40;;;18.00;99.90;;;;;;5073640;28;20072;-51
2022/08/27 04:27:56;;;;;;;13.52;9.65;;;18.10;99.90;;;;;;5072818;28;20020;-52
2022/08/27 04:30:21;;;;;;;11.10;8.38;;;18.10;99.90;;;;;;5072608;28;20033;-50
2022/08/27 04:32:47;;;;;;;13.30;8.50;;;18.10;99.90;;;;;;5073677;28;20090;-51
2022/08/27 04:35:13;;;;;;;10.02;8.68;;;18.10;99.90;;;;;;5094004;28;20028;-51
2022/08/27 04:37:39;;;;;;;17.40;9.70;;;18.10;99.90;;;;;;5094132;28;20531;-53
2022/08/27 04:40:05;;;;;;;13.60;9.30;;;18.20;99.90;;;;;;5094191;28;20024;-54
2022/08/27 04:42:31;;;;;;;10.15;8.73;;;18.30;99.90;;;;;;5093935;28;20042;-50
2022/08/27 04:44:57;;;;;;;17.17;8.20;;;18.40;99.90;;;;;;5094022;28;20459;-50
2022/08/27 04:47:22;;;;;;;9.82;8.13;;;18.30;99.90;;;;;;5093347;28;20043;-51
2022/08/27 04:49:48;;;;;;;11.55;8.98;;;18.30;99.90;;;;;;5074471;28;20028;-54
2022/08/27 04:52:14;;;;;;;11.40;8.13;;;18.30;99.90;;;;;;5072576;28;20020;-51
2022/08/27 04:54:40;;;;;;;11.32;7.78;;;18.40;99.90;;;;;;5073605;28;20032;-50
2022/08/27 04:57:09;;;;;;;15.10;7.95;;;18.40;99.90;;;;;;5073820;28;20077;-51
2022/08/27 04:59:36;;;;;;;13.98;7.68;;;18.40;99.90;;;;;;5073780;28;20024;-51
2022/08/27 05:02:04;;;;;;;11.23;8.15;;;18.50;99.90;;;;;;5073729;28;20126;-50
2022/08/27 05:04:30;;;;;;;11.57;8.32;;;18.40;99.90;;;;;;5092033;28;20031;-51
2022/08/27 05:06:56;;;;;;;11.80;8.70;;;18.50;99.90;;;;;;5093720;28;20036;-52
2022/08/27 05:09:22;;;;;;;12.95;8.57;;;18.50;99.90;;;;;;5093783;28;20482;-52
2022/08/27 05:11:50;;;;;;;15.68;8.20;;;18.50;99.90;;;;;;5093629;28;20028;-52
2022/08/27 05:14:18;;;;;;;12.18;8.23;;;18.50;99.90;;;;;;5093407;28;20052;-55
2022/08/27 05:16:46;;;;;;;12.40;8.40;;;18.60;99.90;;;;;;5092285;28;20348;-51
2022/08/27 05:19:14;;;;;;;16.20;8.95;;;18.70;99.90;;;;;;5091639;28;20024;-51
2022/08/27 05:21:47;;;;;;;11.13;7.32;;;18.90;99.90;;;;;;5093534;28;20421;-50
2022/08/27 05:24:13;;;;;;;26.52;8.32;;;18.80;99.90;;;;;;5093182;28;20086;-51
2022/08/27 05:26:39;;;;;;;13.77;8.45;;;18.90;99.90;;;;;;5093447;28;20375;-51
2022/08/27 05:29:05;;;;;;;10.23;8.30;;;18.90;99.90;;;;;;5093273;28;20032;-51
2022/08/27 05:31:32;;;;;;;12.80;7.40;;;18.90;99.90;;;;;;5093213;28;20028;-52
2022/08/27 05:33:58;;;;;;;14.88;8.30;;;19.10;99.90;;;;;;5074225;28;20021;-51
2022/08/27 05:36:30;;;;;;;19.95;8.02;;;19.20;99.90;;;;;;5072970;28;20052;-52
2022/08/27 05:38:57;;;;;;;9.98;7.50;;;19.30;99.90;;;;;;5072937;28;20108;-50
2022/08/27 05:41:26;;;;;;;8.95;7.75;;;19.40;99.90;;;;;;5072688;28;20021;-51
2022/08/27 05:43:54;;;;;;;10.63;7.32;;;19.40;99.90;;;;;;5072963;28;20024;-50
2022/08/27 05:49:43;;;;;;;10.90;7.93;;;19.50;99.90;;;;;;5072964;28;20036;-51
2022/08/27 05:52:12;;;;;;;16.02;7.97;;;19.40;99.90;;;;;;5072546;28;20075;-54
2022/08/27 05:54:38;;;;;;;18.75;7.72;;;19.40;99.90;;;;;;5072544;28;20623;-52
2022/08/27 05:57:04;;;;;;;8.63;7.20;;;19.60;99.90;;;;;;5072750;28;20032;-53
2022/08/27 06:02:14;;;;;;;8.15;7.32;;;19.70;99.90;;;;;;5080584;28;20024;-50
2022/08/27 06:04:40;;;;;;;12.15;7.25;;;19.70;99.90;;;;;;5092830;28;20499;-51
2022/08/27 06:07:09;;;;;;;9.00;7.28;;;19.80;99.90;;;;;;5092603;28;20483;-50
2022/08/27 06:09:35;;;;;;;9.52;6.97;;;19.90;99.90;;;;;;5091165;28;20024;-50
2022/08/27 06:12:01;;;;;;;13.35;7.22;;;19.90;99.90;;;;;;5092447;28;20424;-50
2022/08/27 06:14:27;;;;;;;10.77;7.18;;;19.90;99.90;;;;;;5092457;28;20024;-53
2022/08/27 06:16:53;;;;;;;9.20;6.68;;;19.90;99.90;;;;;;5092243;28;20028;-53
2022/08/27 06:19:19;;;;;;;11.30;6.97;;;20.20;99.90;;;;;;5092172;28;20009;-51
2022/08/27 06:21:45;;;;;;;17.48;7.85;;;20.10;99.90;;;;;;5091102;28;20054;-52
2022/08/27 06:24:12;;;;;;;14.10;7.55;;;19.90;99.90;;;;;;5092156;28;20387;-53
2022/08/27 06:26:39;;;;;;;13.10;7.50;;;20.10;99.90;;;;;;5092395;28;20073;-51
2022/08/27 06:29:06;;;;;;;9.82;7.10;;;20.40;99.90;;;;;;5092365;28;20024;-51
2022/08/27 06:31:34;;;;;;;18.98;8.85;;;20.40;99.90;;;;;;5089905;28;20631;-50
2022/08/27 06:34:01;;;;;;;16.60;9.40;;;20.30;99.90;;;;;;5092082;28;20038;-50
2022/08/27 06:36:28;;;;;;;10.63;7.22;;;20.40;99.90;;;;;;5078307;28;20025;-50
2022/08/27 06:38:56;;;;;;;17.33;8.02;;;20.50;99.90;;;;;;5071943;28;20555;-52
2022/08/27 06:41:24;;;;;;;11.90;7.90;;;20.30;99.90;;;;;;5071729;28;20017;-50
2022/08/27 06:43:50;;;;;;;11.80;7.45;;;20.50;99.90;;;;;;5071842;28;20016;-50
2022/08/27 06:46:18;;;;;;;17.50;7.75;;;20.40;99.90;;;;;;5071660;28;20032;-50
2022/08/27 06:48:45;;;;;;;8.82;7.07;;;20.50;99.90;;;;;;5071784;28;20052;-51
2022/08/27 06:51:16;;;;;;;13.90;8.57;;;20.50;99.90;;;;;;5084641;28;20379;-51
2022/08/27 06:53:42;;;;;;;10.15;7.40;;;20.40;99.90;;;;;;5091756;28;20031;-51
2022/08/27 06:56:10;;;;;;;15.77;8.25;;;20.60;99.90;;;;;;5091792;28;20017;-51
2022/08/27 06:58:36;;;;;;;13.82;8.80;;;20.20;99.90;;;;;;5091904;28;20024;-50
2022/08/27 07:01:10;;;;;;;17.90;9.88;;;20.00;99.90;;;;;;5091631;28;20061;-50
2022/08/27 07:03:36;;;;;;;19.92;10.80;;;20.00;99.90;;;;;;5091815;28;20024;-49
2022/08/27 07:06:06;;;;;;;20.17;9.98;;;19.90;99.90;;;;;;5075936;28;20031;-50
2022/08/27 07:08:32;;;;;;;14.30;9.43;;;20.00;99.90;;;;;;5071036;28;20053;-51
2022/08/27 07:10:58;;;;;;;20.02;10.63;;;20.20;99.90;;;;;;5071030;28;20525;-50
2022/08/27 07:13:23;;;;;;;20.67;10.18;;;20.10;99.90;;;;;;5070981;28;20050;-49
2022/08/27 07:15:50;;;;;;;14.57;10.07;;;20.00;99.90;;;;;;5071469;28;20040;-50
2022/08/27 07:18:15;;;;;;;20.80;12.05;;;19.90;99.90;;;;;;5071171;28;20070;-51
2022/08/27 07:20:41;;;;;;;16.65;9.95;;;19.90;99.90;;;;;;5084743;28;20024;-49
2022/08/27 07:23:07;;;;;;;17.33;11.40;;;20.10;99.90;;;;;;5091290;28;20035;-50
2022/08/27 07:25:32;;;;;;;17.38;11.65;;;20.00;99.90;;;;;;5091184;28;20031;-52
2022/08/27 07:28:04;;;;;;;15.77;10.43;;;20.00;99.90;;;;;;5091398;28;20032;-50
2022/08/27 07:30:30;;;;;;;16.42;11.75;;;20.30;99.90;;;;;;5089507;28;20028;-51
2022/08/27 07:32:56;;;;;;;20.15;12.00;;;20.40;99.90;;;;;;5090355;28;20029;-49
2022/08/27 07:35:22;;;;;;;20.00;11.48;;;20.70;99.90;;;;;;5081249;28;20070;-49
2022/08/27 07:37:47;;;;;;;23.70;11.40;;;20.90;99.90;;;;;;5069308;28;20048;-51
2022/08/27 07:40:14;;;;;;;22.35;12.30;;;20.60;99.90;;;;;;5068673;28;20074;-50
2022/08/27 07:45:25;;;;;;;21.20;10.63;;;20.60;99.90;;;;;;5068177;28;20078;-50
2022/08/27 07:47:52;;;;;;;16.15;12.13;;;20.40;99.90;;;;;;5068128;28;20509;-51
2022/08/27 07:50:18;;;;;;;23.73;11.23;;;20.50;99.90;;;;;;5067845;28;20071;-50
2022/08/27 07:52:44;;;;;;;21.95;10.55;;;20.70;99.90;;;;;;5067297;28;20160;-50
2022/08/27 07:55:11;;;;;;;21.00;11.02;;;20.70;99.90;;;;;;5066873;28;20540;-51
2022/08/27 07:57:37;;;;;;;15.20;11.02;;;20.60;99.90;;;;;;5066576;28;20058;-50
2022/08/27 08:00:05;;;;;;;17.55;10.32;;;20.50;99.90;;;;;;5068168;28;20017;-51
2022/08/27 08:02:31;;;;;;;21.63;10.38;;;20.70;99.90;;;;;;5067698;28;20036;-50
2022/08/27 08:04:57;;;;;;;15.43;9.95;;;20.70;99.90;;;;;;5076541;28;20036;-51
2022/08/27 08:07:23;;;;;;;18.52;11.02;;;21.10;99.90;;;;;;5088239;28;20093;-50
2022/08/27 08:09:49;;;;;;;25.35;11.00;;;20.80;99.90;;;;;;5089625;28;20108;-50
2022/08/27 08:12:15;;;;;;;12.82;10.45;;;21.00;99.90;;;;;;5089743;28;20107;-50
2022/08/27 08:14:40;;;;;;;15.45;11.15;;;21.10;99.90;;;;;;5089774;28;20028;-51
2022/08/27 08:17:06;;;;;;;19.65;11.55;;;21.30;99.90;;;;;;5090181;28;20107;-51
2022/08/27 08:19:32;;;;;;;23.52;13.63;;;21.60;99.90;;;;;;5089626;28;20027;-50
2022/08/27 08:21:59;;;;;;;23.45;12.30;;;21.90;99.90;;;;;;5089674;28;20031;-50
2022/08/27 08:24:24;;;;;;;14.68;11.68;;;22.00;99.90;;;;;;5083569;28;20535;-50
2022/08/27 08:26:50;;;;;;;25.27;14.60;;;22.40;99.90;;;;;;5073092;28;20033;-50
2022/08/27 08:29:16;;;;;;;20.77;13.45;;;22.60;99.90;;;;;;5072900;28;20021;-50
2022/08/27 08:31:42;;;;;;;20.67;13.32;;;22.60;99.90;;;;;;5073332;28;20064;-50
2022/08/27 08:34:09;;;;;;;24.85;15.15;;;22.80;99.90;;;;;;5072968;28;20100;-51
2022/08/27 08:36:35;;;;;;;22.42;13.88;;;22.90;99.90;;;;;;5072918;28;20021;-52
2022/08/27 08:39:02;;;;;;;20.65;13.10;;;22.60;99.90;;;;;;5072747;28;20020;-52
2022/08/27 08:41:31;;;;;;;15.55;11.32;;;22.80;99.90;;;;;;5072874;28;20454;-50
2022/08/27 08:43:58;;;;;;;17.17;11.52;;;22.90;99.90;;;;;;5072780;28;20063;-51
2022/08/27 08:46:36;;;;;;;18.90;10.52;;;23.00;99.90;;;;;;5072387;28;20098;-51
2022/08/27 08:49:30;;;;;;;21.48;11.85;;;23.30;99.90;;;;;;5073899;28;20024;-52
2022/08/27 08:52:05;;;;;;;11.05;9.95;;;23.10;99.90;;;;;;5065039;28;20035;-54
2022/08/27 08:54:33;;;;;;;23.20;12.93;;;22.90;99.90;;;;;;5079664;28;20040;-51
2022/08/27 08:57:23;;;;;;;14.90;8.70;;;22.80;99.90;;;;;;5092593;28;20020;-51
2022/08/27 09:00:00;;;;;;;17.10;10.10;;;22.70;99.90;;;;;;5093987;28;20020;-53
2022/08/27 09:02:26;;;;;;;15.10;9.85;;;22.70;99.90;;;;;;5093704;28;20016;-51
2022/08/27 09:04:52;;;;;;;15.90;8.52;;;22.50;99.90;;;;;;5093640;28;20020;-50
2022/08/27 09:07:24;;;;;;;25.20;10.90;;;22.50;99.90;;;;;;5093455;28;20040;-50
2022/08/27 09:10:08;;;;;;;12.63;9.07;;;22.20;99.90;;;;;;5093299;28;20028;-54
2022/08/27 09:12:33;;;;;;;14.50;8.93;;;22.30;99.90;;;;;;5093711;28;20028;-51
2022/08/27 09:15:05;;;;;;;18.33;9.30;;;22.20;99.90;;;;;;5093531;28;20023;-50
2022/08/27 09:17:32;;;;;;;11.45;9.23;;;22.10;99.90;;;;;;5093432;28;20153;-65
2022/08/27 09:19:58;;;;;;;15.98;9.32;;;22.10;99.90;;;;;;5093517;28;20094;-50
2022/08/27 09:23:15;;;;;;;14.60;10.32;;;22.30;99.90;;;;;;5093355;28;20403;-49
2022/08/27 09:25:43;;;;;;;19.02;10.57;;;22.60;99.90;;;;;;5008626;28;20128;-52
2022/08/27 09:31:17;;;;;;;11.43;8.05;;;23.00;99.90;;;;;;5053349;28;20380;-51
2022/08/27 09:33:43;;;;;;;16.80;9.90;;;23.20;99.90;;;;;;5052798;28;20037;-51
2022/08/27 09:36:12;;;;;;;14.70;9.63;;;22.90;99.90;;;;;;5052896;28;20029;-54
2022/08/27 09:38:50;;;;;;;13.88;8.02;;;23.00;99.90;;;;;;5065211;28;20039;-54
2022/08/27 09:41:25;;;;;;;11.27;7.07;;;23.30;99.90;;;;;;5072701;28;20465;-50
2022/08/27 09:44:06;;;;;;;13.57;8.93;;;23.20;99.90;;;;;;5072923;28;20397;-51
2022/08/27 09:46:32;;;;;;;11.50;8.90;;;23.20;99.90;;;;;;5072584;28;20035;-52
2022/08/27 09:49:08;;;;;;;16.02;9.13;;;23.40;99.90;;;;;;5072766;28;20504;-51
2022/08/27 09:51:34;;;;;;;15.55;8.10;;;23.30;99.90;;;;;;5072423;28;20035;-50
2022/08/27 09:54:03;;;;;;;12.88;8.65;;;23.60;99.90;;;;;;5089644;28;20024;-52
2022/08/27 09:56:35;;;;;;;11.70;9.25;;;24.00;99.90;;;;;;5092644;28;20157;-52
2022/08/27 09:59:11;;;;;;;13.77;9.07;;;23.80;99.90;;;;;;5076493;28;20462;-50
2022/08/27 10:01:48;;;;;;;12.77;8.40;;;23.80;99.90;;;;;;5071996;28;20020;-49
2022/08/27 10:04:16;;;;;;;11.98;8.00;;;23.80;99.90;;;;;;5072176;28;20089;-53
2022/08/27 10:06:47;;;;;;;19.42;9.25;;;24.30;99.90;;;;;;5072147;28;20100;-53
2022/08/27 10:09:21;;;;;;;13.43;7.65;;;24.60;99.90;;;;;;5072174;28;20032;-50
2022/08/27 10:12:01;;;;;;;16.23;8.50;;;24.50;99.90;;;;;;5072010;28;20056;-50
2022/08/27 10:14:41;;;;;;;14.85;9.15;;;24.60;99.90;;;;;;5071972;28;20031;-51
2022/08/27 10:17:19;;;;;;;17.23;11.57;;;24.50;99.90;;;;;;5071963;28;20059;-51
2022/08/27 10:19:57;;;;;;;12.20;9.15;;;24.40;99.90;;;;;;5072182;28;20029;-51
2022/08/27 10:23:13;;;;;;;10.93;8.63;;;24.80;99.90;;;;;;5079404;28;20027;-50
2022/08/27 10:25:57;;;;;;;13.68;8.13;;;25.20;99.90;;;;;;5057941;28;20059;-51
2022/08/27 10:28:58;;;;;;;9.07;7.32;;;25.70;99.90;;;;;;5092074;28;20016;-50
2022/08/27 10:31:50;;;;;;;9.13;6.82;;;25.90;99.90;;;;;;5092121;28;20099;-50
2022/08/27 10:34:42;;;;;;;12.23;8.18;;;26.10;98.90;;;;;;5079189;28;20024;-49
2022/08/27 10:37:33;;;;;;;13.35;7.15;;;26.60;98.60;;;;;;5066703;28;20416;-50
2022/08/27 10:40:11;;;;;;;13.48;8.18;;;26.60;96.60;;;;;;5078258;28;20053;-53
2022/08/27 10:43:24;;;;;;;9.77;7.88;;;26.60;96.80;;;;;;5069233;28;20044;-52
2022/08/27 10:46:24;;;;;;;9.27;6.65;;;26.50;96.40;;;;;;4997566;28;20030;-53
2022/08/27 10:48:54;;;;;;;15.38;7.60;;;26.40;97.50;;;;;;4998260;28;20370;-52
2022/08/27 10:51:34;;;;;;;9.23;6.93;;;26.20;96.60;;;;;;5047522;28;20045;-50
2022/08/27 10:54:13;;;;;;;9.55;7.10;;;26.00;97.30;;;;;;5060477;28;20025;-50
2022/08/27 10:56:50;;;;;;;13.77;6.68;;;26.30;97.60;;;;;;5065245;28;20206;-50
2022/08/27 10:59:20;;;;;;;12.88;8.13;;;26.40;98.50;;;;;;5081030;28;20032;-49
2022/08/27 11:01:57;;;;;;;10.30;7.63;;;26.00;98.40;;;;;;5080963;28;20447;-53
2022/08/27 11:04:35;;;;;;;16.50;7.72;;;25.50;98.70;;;;;;5072212;28;20487;-49
2022/08/27 11:07:22;;;;;;;14.02;7.30;;;25.70;98.50;;;;;;5080380;28;20047;-50
2022/08/27 11:09:50;;;;;;;12.95;6.32;;;25.80;98.80;;;;;;5080682;28;20063;-53
2022/08/27 11:12:32;;;;;;;12.63;7.25;;;26.10;98.00;;;;;;5076243;28;20043;-50
2022/08/27 11:15:14;;;;;;;7.07;6.37;;;26.00;97.60;;;;;;5059831;28;20039;-51
2022/08/27 11:17:58;;;;;;;13.55;6.82;;;26.10;97.20;;;;;;5059591;28;20032;-50
2022/08/27 11:20:23;;;;;;;11.32;6.72;;;27.20;96.80;;;;;;5059371;28;20123;-54
2022/08/27 11:23:09;;;;;;;11.70;6.97;;;28.10;94.60;;;;;;5062962;28;20162;-52
2022/08/27 11:25:49;;;;;;;11.27;7.60;;;28.60;94.70;;;;;;5070563;28;20095;-50
2022/08/27 11:28:21;;;;;;;11.02;6.45;;;28.80;93.60;;;;;;5071034;28;20021;-50
2022/08/27 11:30:47;;;;;;;12.40;7.60;;;28.20;93.60;;;;;;5070498;28;20017;-51
2022/08/27 11:33:39;;;;;;;10.82;6.25;;;27.30;94.10;;;;;;5062966;28;23528;-52
2022/08/27 11:36:35;;;;;;;12.90;6.57;;;27.30;94.30;;;;;;5060130;28;20028;-51
2022/08/27 11:39:38;;;;;;;12.02;6.18;;;27.90;93.80;;;;;;5060550;28;20022;-52
2022/08/27 11:42:13;;;;;;;13.98;6.65;;;28.60;93.20;;;;;;5059735;28;20055;-54
2022/08/27 11:44:45;;;;;;;10.23;6.72;;;28.80;92.90;;;;;;5060281;28;20101;-49
2022/08/27 11:47:20;;;;;;;12.05;6.78;;;28.30;93.30;;;;;;5060912;28;20463;-51
2022/08/27 11:50:07;;;;;;;11.48;7.05;;;27.70;93.20;;;;;;5080264;28;22565;-52
2022/08/27 11:52:41;;;;;;;9.68;5.72;;;27.80;94.00;;;;;;5080301;28;20074;-52
2022/08/27 11:55:14;;;;;;;13.93;7.55;;;28.30;93.30;;;;;;5080079;28;20043;-52
2022/08/27 11:57:40;;;;;;;11.43;6.63;;;28.50;92.40;;;;;;5080855;28;20061;-53
2022/08/27 12:00:29;;;;;;;14.15;7.15;;;27.90;92.20;;;;;;5095016;28;20024;-53
2022/08/27 12:03:04;;;;;;;9.25;6.45;;;27.90;92.50;;;;;;5094874;28;20056;-50
2022/08/27 12:05:35;;;;;;;10.57;6.32;;;28.30;92.80;;;;;;5094916;28;20097;-51
2022/08/27 12:08:31;;;;;;;7.00;6.00;;;29.60;92.30;;;;;;5088420;28;20036;-53
2022/08/27 12:11:19;;;;;;;15.40;6.55;;;29.80;90.40;;;;;;5074222;28;20377;-51
2022/08/27 12:14:31;;;;;;;11.52;6.88;;;30.20;90.30;;;;;;5074660;28;20598;-53
2022/08/27 12:16:59;;;;;;;20.50;6.22;;;29.50;89.00;;;;;;5064120;28;20098;-54
2022/08/27 12:19:25;;;;;;;11.27;5.97;;;29.20;89.90;;;;;;5074309;28;20020;-51
2022/08/27 12:22:15;;;;;;;9.30;5.85;;;29.10;90.40;;;;;;5074681;28;20021;-51
2022/08/27 12:25:01;;;;;;;7.63;5.38;;;29.80;90.60;;;;;;5074405;28;20102;-52
2022/08/27 12:27:33;;;;;;;10.63;5.82;;;30.80;87.10;;;;;;5074334;28;20470;-54
2022/08/27 12:30:18;;;;;;;8.60;5.63;;;30.80;88.10;;;;;;5074307;28;20463;-48
2022/08/27 12:32:45;;;;;;;11.77;6.13;;;30.90;87.30;;;;;;5074308;28;20039;-51
2022/08/27 12:35:28;;;;;;;8.13;5.22;;;30.70;85.00;;;;;;5074093;28;20533;-58
2022/08/27 12:38:05;;;;;;;10.38;5.90;;;31.70;85.10;;;;;;5080703;28;20455;-57
2022/08/27 12:40:41;;;;;;;10.48;5.50;;;33.10;79.70;;;;;;5094304;28;20115;-59
2022/08/27 12:43:16;;;;;;;10.10;5.63;;;33.30;78.60;;;;;;5094583;28;20035;-59
2022/08/27 12:45:55;;;;;;;11.23;6.28;;;32.10;78.00;;;;;;5094363;28;20451;-59
2022/08/27 12:48:25;;;;;;;13.27;6.43;;;31.10;80.60;;;;;;5094178;28;20027;-59
2022/08/27 12:50:59;;;;;;;15.20;7.10;;;30.20;83.80;;;;;;5092968;28;20024;-59
2022/08/27 12:53:37;;;;;;;9.05;5.68;;;29.40;84.50;;;;;;5092206;28;20085;-58
2022/08/27 12:56:21;;;;;;;17.63;7.85;;;29.00;85.20;;;;;;5091177;28;20020;-58
2022/08/27 12:59:14;;;;;;;16.08;7.18;;;28.70;88.00;;;;;;5090907;28;20502;-59
2022/08/27 13:01:58;;;;;;;12.38;6.57;;;28.50;88.00;;;;;;5092531;28;20536;-59
2022/08/27 13:04:29;;;;;;;9.10;5.97;;;28.10;87.20;;;;;;5092130;28;20635;-58